Time;durP1;ratioP1;P1;durP2;ratioP2;P2;SDS_P1;SDS_P2;PMS_P1;PMS_P2;Temp;Humidity;BMP_temperature;BMP_pressure;BME280_temperature;BME280_humidity;BME280_pressure;Samples;Min_cycle;Max_cycle;Signal;HPM_P1;HPM_P2
2023/01/12 00:01:27;;;;;;;9.70;6.32;;;22.60;99.90;;;;;;4937406;29;20051;-49
2023/01/12 00:03:53;;;;;;;9.73;6.72;;;22.70;99.90;;;;;;4937479;29;20171;-49
2023/01/12 00:06:20;;;;;;;8.70;6.57;;;22.70;99.90;;;;;;4937529;29;20023;-49
2023/01/12 00:08:46;;;;;;;8.05;6.20;;;22.60;99.90;;;;;;4937503;29;20484;-50
2023/01/12 00:11:13;;;;;;;9.80;6.72;;;22.60;99.90;;;;;;4952180;29;20482;-49
2023/01/12 00:13:38;;;;;;;8.77;5.93;;;22.60;99.90;;;;;;4937352;29;20034;-50
2023/01/12 00:18:49;;;;;;;9.57;6.15;;;22.60;99.90;;;;;;4937530;29;20067;-49
2023/01/12 00:21:16;;;;;;;9.00;5.85;;;22.60;99.90;;;;;;4937149;29;20028;-50
2023/01/12 00:23:43;;;;;;;9.00;6.43;;;22.60;99.90;;;;;;4937204;29;20036;-50
2023/01/12 00:26:10;;;;;;;9.18;6.13;;;22.60;99.90;;;;;;4937147;29;20020;-50
2023/01/12 00:28:37;;;;;;;10.13;6.10;;;22.60;99.90;;;;;;4937115;29;20046;-50
2023/01/12 00:31:09;;;;;;;9.43;6.47;;;22.60;99.90;;;;;;4950773;28;20032;-49
2023/01/12 00:33:36;;;;;;;9.50;6.85;;;22.50;99.90;;;;;;4937033;29;20027;-49
2023/01/12 00:36:08;;;;;;;8.95;6.43;;;22.60;99.90;;;;;;4937240;29;20078;-49
2023/01/12 00:38:35;;;;;;;9.75;6.28;;;22.50;99.90;;;;;;4937108;29;20027;-49
2023/01/12 00:41:06;;;;;;;9.97;6.47;;;22.50;99.90;;;;;;4935700;29;20039;-49
2023/01/12 00:46:15;;;;;;;10.75;7.05;;;22.50;99.90;;;;;;4936982;29;20478;-50
2023/01/12 00:48:41;;;;;;;8.63;6.13;;;22.50;99.90;;;;;;4936575;29;20099;-50
2023/01/12 00:51:07;;;;;;;9.45;6.57;;;22.50;99.90;;;;;;4936593;29;20087;-49
2023/01/12 00:53:32;;;;;;;10.75;6.88;;;22.50;99.90;;;;;;4936769;29;20032;-49
2023/01/12 00:56:03;;;;;;;8.65;6.35;;;22.50;99.90;;;;;;4951312;29;20035;-50
2023/01/12 00:58:29;;;;;;;9.70;6.72;;;22.40;99.90;;;;;;4936512;29;20472;-50
2023/01/12 01:01:02;;;;;;;9.77;7.13;;;22.40;99.90;;;;;;4972456;23;20421;-57
2023/01/12 01:03:29;;;;;;;8.65;6.60;;;22.40;99.90;;;;;;4974681;28;20471;-57
2023/01/12 01:06:02;;;;;;;10.70;6.80;;;22.40;99.90;;;;;;4974830;28;20055;-56
2023/01/12 01:08:27;;;;;;;10.40;6.95;;;22.40;99.90;;;;;;4974758;28;20427;-56
2023/01/12 01:11:08;;;;;;;9.85;7.10;;;22.40;99.90;;;;;;4974653;28;20023;-58
2023/01/12 01:13:39;;;;;;;10.07;7.15;;;22.40;99.90;;;;;;4974904;28;20029;-57
2023/01/12 01:16:06;;;;;;;10.88;7.13;;;22.40;99.90;;;;;;4973713;28;20027;-56
2023/01/12 01:18:33;;;;;;;11.45;8.23;;;22.30;99.90;;;;;;4974713;28;20042;-57
2023/01/12 01:20:59;;;;;;;10.90;7.50;;;22.30;99.90;;;;;;4974512;28;20034;-57
2023/01/12 01:23:27;;;;;;;9.98;7.05;;;22.30;99.90;;;;;;4974334;28;20110;-57
2023/01/12 01:25:52;;;;;;;;;;;22.30;99.90;;;;;;4974780;28;20030;-56
2023/01/12 01:28:18;;;;;;;9.70;7.10;;;22.30;99.90;;;;;;4974376;28;19910;-57
2023/01/12 01:30:47;;;;;;;10.57;7.45;;;22.30;99.90;;;;;;4974379;28;20030;-56
2023/01/12 01:33:14;;;;;;;11.32;7.47;;;22.30;99.90;;;;;;4974336;28;20031;-57
2023/01/12 01:35:39;;;;;;;11.52;7.10;;;22.30;99.90;;;;;;4974302;28;20035;-56
2023/01/12 01:38:06;;;;;;;12.80;7.93;;;22.20;99.90;;;;;;4989370;28;20046;-56
2023/01/12 01:40:32;;;;;;;12.43;8.27;;;22.20;99.90;;;;;;4974327;28;20023;-57
2023/01/12 01:42:58;;;;;;;11.13;7.80;;;22.20;99.90;;;;;;4973778;28;20088;-57
2023/01/12 01:45:25;;;;;;;11.38;7.43;;;22.20;99.90;;;;;;4974061;28;20055;-57
2023/01/12 01:48:00;;;;;;;12.13;7.63;;;22.20;99.90;;;;;;4974130;28;20034;-57
2023/01/12 01:50:37;;;;;;;10.05;7.28;;;22.20;99.90;;;;;;4974149;28;20337;-57
2023/01/12 01:53:08;;;;;;;11.05;7.70;;;22.20;99.90;;;;;;4974267;28;20092;-58
2023/01/12 01:55:41;;;;;;;13.27;8.18;;;22.20;99.90;;;;;;4974004;28;20026;-56
2023/01/12 01:58:12;;;;;;;11.73;8.43;;;22.20;99.90;;;;;;4974109;28;20433;-57
2023/01/12 02:00:39;;;;;;;12.25;7.80;;;22.20;99.90;;;;;;4974492;28;20557;-56
2023/01/12 02:03:07;;;;;;;10.43;7.13;;;22.20;99.90;;;;;;4973993;28;20082;-56
2023/01/12 02:05:32;;;;;;;;;;;22.20;99.90;;;;;;4974324;28;20030;-57
2023/01/12 02:08:09;;;;;;;9.90;6.63;;;22.10;99.90;;;;;;4973820;28;19906;-56
2023/01/12 02:10:37;;;;;;;12.27;8.55;;;22.10;99.90;;;;;;4973834;28;20539;-56
2023/01/12 02:16:27;;;;;;;11.05;7.60;;;22.10;99.90;;;;;;4973908;28;19929;-56
2023/01/12 02:19:11;;;;;;;10.23;7.30;;;22.10;99.90;;;;;;4914150;29;20043;-56
2023/01/12 02:22:02;;;;;;;11.23;7.40;;;22.10;99.90;;;;;;4914510;29;20024;-56
2023/01/12 02:24:49;;;;;;;10.85;7.70;;;22.10;99.90;;;;;;4960666;28;20053;-56
2023/01/12 02:27:43;;;;;;;11.50;8.07;;;22.10;99.90;;;;;;4973500;28;20019;-56
2023/01/12 02:30:38;;;;;;;9.93;6.72;;;22.00;99.90;;;;;;4973660;28;20030;-56
2023/01/12 02:33:29;;;;;;;10.45;7.38;;;22.00;99.90;;;;;;4921229;28;20100;-56
2023/01/12 02:36:27;;;;;;;10.85;7.07;;;22.00;99.90;;;;;;4973462;28;20081;-57
2023/01/12 02:39:12;;;;;;;10.35;7.45;;;22.00;99.90;;;;;;4973344;28;20027;-57
2023/01/12 02:45:16;;;;;;;11.45;7.65;;;22.00;99.90;;;;;;4972466;28;20151;-57
2023/01/12 02:47:50;;;;;;;11.63;8.10;;;22.00;99.90;;;;;;4946986;28;20039;-57
2023/01/12 02:50:33;;;;;;;10.77;7.38;;;22.00;99.90;;;;;;4973226;28;20030;-57
2023/01/12 02:53:05;;;;;;;11.55;7.40;;;22.00;99.90;;;;;;4973172;28;20376;-57
2023/01/12 02:55:33;;;;;;;12.07;6.60;;;21.90;99.90;;;;;;4971258;28;20102;-57
2023/01/12 02:58:01;;;;;;;10.98;7.70;;;22.00;99.90;;;;;;4965938;28;20031;-57
2023/01/12 03:00:28;;;;;;;12.07;7.35;;;21.90;99.90;;;;;;4963954;28;20043;-59
2023/01/12 03:02:54;;;;;;;10.10;7.32;;;22.00;99.90;;;;;;4976656;28;20113;-59
2023/01/12 03:05:19;;;;;;;9.82;6.95;;;22.00;99.90;;;;;;4976590;28;20162;-60
2023/01/12 03:07:56;;;;;;;11.15;7.28;;;21.90;99.90;;;;;;4976549;28;20065;-56
2023/01/12 03:10:45;;;;;;;10.48;6.75;;;22.00;99.90;;;;;;4963686;28;20021;-59
2023/01/12 03:13:15;;;;;;;12.95;6.85;;;22.00;99.90;;;;;;4957551;28;20412;-58
2023/01/12 03:15:47;;;;;;;9.73;6.43;;;21.90;99.90;;;;;;4976699;28;20479;-59
2023/01/12 03:18:30;;;;;;;9.68;6.05;;;21.90;99.90;;;;;;4975246;28;20096;-58
2023/01/12 03:21:02;;;;;;;12.05;7.20;;;22.00;99.90;;;;;;4975064;28;20019;-61
2023/01/12 03:23:40;;;;;;;10.02;6.10;;;22.00;99.90;;;;;;4976283;28;20042;-58
2023/01/12 03:26:09;;;;;;;10.25;6.60;;;22.00;99.90;;;;;;4975839;28;20030;-58
2023/01/12 03:28:39;;;;;;;9.38;6.07;;;22.00;99.90;;;;;;4976517;28;20031;-56
2023/01/12 03:31:09;;;;;;;10.15;6.43;;;22.00;99.90;;;;;;4976169;28;20797;-56
2023/01/12 03:33:36;;;;;;;9.63;6.38;;;22.00;99.90;;;;;;4976098;28;20041;-59
2023/01/12 03:36:18;;;;;;;9.23;6.15;;;22.00;99.90;;;;;;4976239;28;20401;-56
2023/01/12 03:39:12;;;;;;;12.57;5.88;;;21.90;99.90;;;;;;4976207;28;20479;-56
2023/01/12 03:41:55;;;;;;;8.15;6.43;;;22.00;99.90;;;;;;4967880;28;20035;-57
2023/01/12 03:44:30;;;;;;;11.20;6.25;;;22.00;99.90;;;;;;4976219;28;20041;-56
2023/01/12 03:47:07;;;;;;;8.95;5.80;;;22.00;99.90;;;;;;4975734;28;20070;-57
2023/01/12 03:50:21;;;;;;;11.25;5.88;;;21.90;99.90;;;;;;4963496;28;20374;-57
2023/01/12 03:52:48;;;;;;;9.68;5.85;;;21.90;99.90;;;;;;4943069;28;20038;-57
2023/01/12 03:55:15;;;;;;;;;;;22.00;99.90;;;;;;4957389;28;20019;-56
2023/01/12 03:57:43;;;;;;;7.65;5.38;;;21.90;99.90;;;;;;4974807;28;19910;-56
2023/01/12 04:00:11;;;;;;;7.07;5.10;;;21.90;99.90;;;;;;4956564;28;20445;-55
2023/01/12 04:02:36;;;;;;;;;;;21.90;99.90;;;;;;4973413;28;20043;-55
2023/01/12 04:05:03;;;;;;;7.68;5.93;;;21.90;99.90;;;;;;4965601;28;20294;-56
2023/01/12 04:07:29;;;;;;;9.32;6.18;;;21.90;99.90;;;;;;4973991;28;20036;-57
2023/01/12 04:09:55;;;;;;;8.75;5.60;;;21.90;99.90;;;;;;4973480;28;20015;-56
2023/01/12 04:12:21;;;;;;;8.15;5.53;;;21.90;99.90;;;;;;4973657;28;20026;-57
2023/01/12 04:14:48;;;;;;;8.75;4.95;;;21.90;99.90;;;;;;4973386;28;20035;-57
2023/01/12 04:17:14;;;;;;;9.10;5.97;;;21.90;99.90;;;;;;4973679;28;20026;-57
2023/01/12 04:19:40;;;;;;;7.72;5.22;;;21.90;99.90;;;;;;4972989;28;20527;-57
2023/01/12 04:24:51;;;;;;;11.23;5.35;;;21.90;99.90;;;;;;4972853;28;20124;-57
2023/01/12 04:27:17;;;;;;;11.82;6.50;;;21.80;99.90;;;;;;4973681;28;20072;-56
2023/01/12 04:29:43;;;;;;;9.73;5.28;;;21.80;99.90;;;;;;4973077;28;20034;-57
2023/01/12 04:32:09;;;;;;;7.10;5.07;;;21.80;99.90;;;;;;4973613;28;20042;-57
2023/01/12 04:34:35;;;;;;;9.68;5.70;;;21.80;99.90;;;;;;4975051;28;20019;-57
2023/01/12 04:37:02;;;;;;;7.95;4.63;;;21.80;99.90;;;;;;4974021;28;20026;-56
2023/01/12 04:39:28;;;;;;;7.90;5.55;;;21.80;99.90;;;;;;4975256;28;20029;-57
2023/01/12 04:41:54;;;;;;;10.10;4.80;;;21.80;99.90;;;;;;4975255;28;20027;-56
2023/01/12 04:44:20;;;;;;;8.57;5.30;;;21.80;99.90;;;;;;4975288;28;20049;-56
2023/01/12 04:46:49;;;;;;;6.97;4.63;;;21.80;99.90;;;;;;4975305;28;20388;-57
2023/01/12 04:49:15;;;;;;;10.93;5.43;;;21.80;99.90;;;;;;4975288;28;20494;-57
2023/01/12 04:51:41;;;;;;;13.07;5.40;;;21.80;99.90;;;;;;4975228;28;20395;-57
2023/01/12 04:54:09;;;;;;;7.90;4.70;;;21.80;99.90;;;;;;4975225;28;20098;-57
2023/01/12 04:56:35;;;;;;;;;;;21.80;99.90;;;;;;4974228;28;20026;-56
2023/01/12 04:59:01;;;;;;;13.45;5.15;;;21.80;99.90;;;;;;4975037;28;19906;-57
2023/01/12 05:01:28;;;;;;;7.13;4.20;;;21.70;99.90;;;;;;4953304;23;20424;-50
2023/01/12 05:03:56;;;;;;;7.90;5.13;;;21.70;99.90;;;;;;4936274;29;20042;-50
2023/01/12 05:06:23;;;;;;;7.25;5.05;;;21.80;99.90;;;;;;4935170;29;20079;-50
2023/01/12 05:11:33;;;;;;;15.85;4.47;;;21.70;99.90;;;;;;4935279;29;20081;-50
2023/01/12 05:13:59;;;;;;;6.53;4.30;;;21.70;99.90;;;;;;4936198;29;20459;-49
2023/01/12 05:16:26;;;;;;;8.05;4.30;;;21.70;99.90;;;;;;4935775;29;20114;-50
2023/01/12 05:18:53;;;;;;;7.30;4.38;;;21.70;99.90;;;;;;4935878;29;20038;-50
2023/01/12 05:21:21;;;;;;;15.10;4.97;;;21.70;99.90;;;;;;4936417;29;20541;-50
2023/01/12 05:23:47;;;;;;;6.47;4.70;;;21.70;99.90;;;;;;4934782;29;20035;-50
2023/01/12 05:26:13;;;;;;;6.60;4.25;;;21.70;99.90;;;;;;4936071;29;20091;-50
2023/01/12 05:28:40;;;;;;;7.82;4.43;;;21.70;99.90;;;;;;4935957;29;20031;-49
2023/01/12 05:31:12;;;;;;;6.13;4.40;;;21.70;99.90;;;;;;4936023;29;20507;-50
2023/01/12 05:33:40;;;;;;;6.53;3.95;;;21.60;99.90;;;;;;4935891;29;20047;-50
2023/01/12 05:36:13;;;;;;;6.25;4.47;;;21.60;99.90;;;;;;4935885;29;20066;-49
2023/01/12 05:38:39;;;;;;;14.05;4.70;;;21.70;99.90;;;;;;4935905;29;20039;-53
2023/01/12 05:41:08;;;;;;;6.43;4.47;;;21.70;99.90;;;;;;4935920;29;20094;-49
2023/01/12 05:43:49;;;;;;;7.43;4.07;;;21.60;99.90;;;;;;4935757;29;20039;-50
2023/01/12 05:46:16;;;;;;;7.80;4.43;;;21.60;99.90;;;;;;4935852;29;20094;-50
2023/01/12 05:48:42;;;;;;;7.30;3.80;;;21.60;99.90;;;;;;4935655;29;20046;-49
2023/01/12 05:51:09;;;;;;;6.07;3.83;;;21.60;99.90;;;;;;4935621;29;20488;-50
2023/01/12 05:53:35;;;;;;;7.05;4.32;;;21.60;99.90;;;;;;4950263;29;20031;-50
2023/01/12 05:56:11;;;;;;;5.15;3.15;;;21.60;99.90;;;;;;4935533;29;20083;-50
2023/01/12 05:58:37;;;;;;;5.72;4.07;;;21.60;99.90;;;;;;4935346;29;20492;-50
2023/01/12 06:01:09;;;;;;;5.95;3.67;;;21.60;99.90;;;;;;4935846;29;20051;-49
2023/01/12 06:03:36;;;;;;;9.43;4.47;;;21.60;99.90;;;;;;4935332;29;20035;-50
2023/01/12 06:06:03;;;;;;;5.57;3.67;;;21.60;99.90;;;;;;4935264;29;20024;-50
2023/01/12 06:08:29;;;;;;;5.43;3.30;;;21.50;99.90;;;;;;4935345;29;20032;-50
2023/01/12 06:10:59;;;;;;;5.63;3.45;;;21.60;99.90;;;;;;4935574;29;20078;-50
2023/01/12 06:16:09;;;;;;;6.05;3.63;;;21.50;99.90;;;;;;4935544;29;20082;-50
2023/01/12 06:18:36;;;;;;;7.63;4.10;;;21.50;99.90;;;;;;4935166;29;20389;-50
2023/01/12 06:21:03;;;;;;;5.57;3.13;;;21.50;99.90;;;;;;4935187;29;20106;-50
2023/01/12 06:23:29;;;;;;;6.70;3.33;;;21.50;99.90;;;;;;4935129;29;20038;-50
2023/01/12 06:25:58;;;;;;;5.88;3.42;;;21.50;99.90;;;;;;4935397;29;20110;-50
2023/01/12 06:28:24;;;;;;;5.18;3.40;;;21.50;99.90;;;;;;4935175;29;20039;-50
2023/01/12 06:30:57;;;;;;;5.35;3.20;;;21.50;99.90;;;;;;4949756;29;20024;-50
2023/01/12 06:33:23;;;;;;;5.18;3.45;;;21.50;99.90;;;;;;4935251;29;20032;-49
2023/01/12 06:35:50;;;;;;;5.20;3.47;;;21.50;99.90;;;;;;4935036;29;20028;-50
2023/01/12 06:38:16;;;;;;;5.32;3.53;;;21.50;99.90;;;;;;4935007;29;20023;-49
2023/01/12 06:40:41;;;;;;;6.63;3.38;;;21.40;99.90;;;;;;4934949;29;20031;-50
2023/01/12 06:43:07;;;;;;;5.30;3.22;;;21.50;99.90;;;;;;4934762;29;20040;-49
2023/01/12 06:45:33;;;;;;;4.40;3.38;;;21.40;99.90;;;;;;4934937;29;20035;-49
2023/01/12 06:47:58;;;;;;;5.28;2.95;;;21.40;99.90;;;;;;4935089;29;20028;-49
2023/01/12 06:50:24;;;;;;;5.82;3.58;;;21.40;99.90;;;;;;4935181;29;20091;-49
2023/01/12 06:52:50;;;;;;;4.70;3.30;;;21.40;99.90;;;;;;4934783;29;20028;-49
2023/01/12 06:55:17;;;;;;;8.77;4.13;;;21.40;99.90;;;;;;4934892;29;20047;-49
2023/01/12 06:57:43;;;;;;;5.80;3.50;;;21.40;99.90;;;;;;4934837;29;20044;-49
2023/01/12 07:00:12;;;;;;;4.28;3.30;;;21.40;99.90;;;;;;4934592;29;20120;-49
2023/01/12 07:02:38;;;;;;;6.65;3.63;;;21.40;99.90;;;;;;4934679;29;20051;-49
2023/01/12 07:05:04;;;;;;;4.95;2.83;;;21.40;99.90;;;;;;4934866;29;20020;-52
2023/01/12 07:07:30;;;;;;;5.63;3.35;;;21.30;99.90;;;;;;4934964;29;20028;-49
2023/01/12 07:09:56;;;;;;;5.60;3.33;;;21.40;99.90;;;;;;4934907;29;20503;-50
2023/01/12 07:12:22;;;;;;;6.18;3.92;;;21.40;99.90;;;;;;4934743;29;20106;-50
2023/01/12 07:14:47;;;;;;;7.45;3.30;;;21.40;99.90;;;;;;4934688;29;20031;-49
2023/01/12 07:17:13;;;;;;;8.05;3.50;;;21.40;99.90;;;;;;4934664;29;20038;-49
2023/01/12 07:19:39;;;;;;;6.95;3.83;;;21.40;99.90;;;;;;4934686;29;20089;-49
2023/01/12 07:22:05;;;;;;;4.35;2.80;;;21.40;99.90;;;;;;4934548;29;20540;-49
2023/01/12 07:24:31;;;;;;;5.20;3.10;;;21.30;99.90;;;;;;4934540;29;20036;-49
2023/01/12 07:26:57;;;;;;;6.32;3.38;;;21.30;99.90;;;;;;4934698;29;20074;-49
2023/01/12 07:29:26;;;;;;;5.88;3.45;;;21.30;99.90;;;;;;4934591;29;20032;-49
2023/01/12 07:31:52;;;;;;;4.43;3.13;;;21.30;99.90;;;;;;4934587;29;20086;-49
2023/01/12 07:34:18;;;;;;;7.55;4.30;;;21.30;99.90;;;;;;4934484;29;20519;-49
2023/01/12 07:36:48;;;;;;;7.25;3.40;;;21.30;99.90;;;;;;4934498;29;20072;-49
2023/01/12 07:39:14;;;;;;;6.72;4.32;;;21.30;99.90;;;;;;4934361;29;20038;-49
2023/01/12 07:44:24;;;;;;;4.60;3.47;;;21.30;99.90;;;;;;4938077;29;20050;-49
2023/01/12 07:46:49;;;;;;;4.68;3.50;;;21.30;99.90;;;;;;4937815;29;20028;-50
2023/01/12 07:49:15;;;;;;;6.85;3.75;;;21.30;99.90;;;;;;4936572;29;20032;-49
2023/01/12 07:51:41;;;;;;;7.38;3.70;;;21.30;99.90;;;;;;4937722;29;20043;-49
2023/01/12 07:54:07;;;;;;;6.38;3.28;;;21.30;99.90;;;;;;4937512;29;20028;-49
2023/01/12 07:56:32;;;;;;;4.50;2.90;;;21.30;99.90;;;;;;4937646;29;20125;-49
2023/01/12 07:58:58;;;;;;;5.75;4.25;;;21.30;99.90;;;;;;4937863;29;20019;-49
2023/01/12 08:01:24;;;;;;;7.30;4.68;;;21.30;99.90;;;;;;4937229;29;20139;-49
2023/01/12 08:03:50;;;;;;;5.78;3.70;;;21.30;99.90;;;;;;4936980;29;20095;-49
2023/01/12 08:06:17;;;;;;;5.82;4.05;;;21.30;99.90;;;;;;4937427;29;20023;-49
2023/01/12 08:08:43;;;;;;;5.93;4.10;;;21.30;99.90;;;;;;4937433;29;20028;-49
2023/01/12 08:11:10;;;;;;;8.45;5.05;;;21.40;99.90;;;;;;4937531;29;20028;-49
2023/01/12 08:13:37;;;;;;;7.40;5.13;;;21.40;99.90;;;;;;4937245;29;20032;-49
2023/01/12 08:16:14;;;;;;;6.93;4.60;;;21.40;99.90;;;;;;4937121;29;20083;-49
2023/01/12 08:18:55;;;;;;;6.63;4.05;;;21.40;99.90;;;;;;4937347;29;20027;-49
2023/01/12 08:21:24;;;;;;;6.00;4.63;;;21.50;99.90;;;;;;4937115;29;20477;-49
2023/01/12 08:23:55;;;;;;;7.32;4.13;;;21.50;99.90;;;;;;4951714;29;20039;-49
2023/01/12 08:26:26;;;;;;;5.85;4.28;;;21.50;99.90;;;;;;4937171;29;20023;-49
2023/01/12 08:29:02;;;;;;;7.20;5.35;;;21.60;99.90;;;;;;4937148;29;20024;-49
2023/01/12 08:31:30;;;;;;;6.40;4.30;;;21.60;99.90;;;;;;4937283;29;20500;-49
2023/01/12 08:33:56;;;;;;;6.18;4.07;;;21.70;99.90;;;;;;4936988;29;20031;-49
2023/01/12 08:36:24;;;;;;;8.73;4.65;;;21.70;99.90;;;;;;4936987;29;20094;-49
2023/01/12 08:38:51;;;;;;;6.28;4.20;;;21.70;99.90;;;;;;4936599;29;20492;-49
2023/01/12 08:41:31;;;;;;;7.53;5.15;;;21.70;99.90;;;;;;4936750;29;20039;-49
2023/01/12 08:44:01;;;;;;;6.45;4.53;;;21.70;99.90;;;;;;4936747;29;20040;-49
2023/01/12 08:46:33;;;;;;;10.00;4.68;;;21.80;99.90;;;;;;4936793;29;20495;-49
2023/01/12 08:48:59;;;;;;;7.68;4.65;;;21.80;99.90;;;;;;4936585;29;20055;-49
2023/01/12 08:51:25;;;;;;;7.82;4.43;;;21.80;99.90;;;;;;4935881;29;20060;-49
2023/01/12 08:53:51;;;;;;;7.15;5.10;;;21.90;99.90;;;;;;4936286;29;20071;-49
2023/01/12 08:56:17;;;;;;;11.15;4.90;;;21.90;99.90;;;;;;4936490;29;20039;-49
2023/01/12 08:58:43;;;;;;;5.63;4.22;;;21.90;99.90;;;;;;4936533;29;20039;-49
2023/01/12 09:01:15;;;;;;;6.90;4.57;;;21.90;99.90;;;;;;4950998;29;20055;-49
2023/01/12 09:03:43;;;;;;;5.45;4.43;;;21.90;99.90;;;;;;4936206;29;20039;-49
2023/01/12 09:06:11;;;;;;;;;;;22.00;99.90;;;;;;4936662;29;20023;-49
2023/01/12 09:08:37;;;;;;;6.75;3.88;;;22.00;99.90;;;;;;4936178;29;20370;-49
2023/01/12 09:11:04;;;;;;;8.93;5.30;;;22.10;99.90;;;;;;4951095;29;20046;-50
2023/01/12 09:13:33;;;;;;;6.55;4.25;;;22.10;99.90;;;;;;4936067;29;20035;-49
2023/01/12 09:16:06;;;;;;;7.97;4.60;;;22.10;99.90;;;;;;4935899;29;20016;-50
2023/01/12 09:18:33;;;;;;;6.43;3.90;;;22.20;99.90;;;;;;4936265;29;20024;-50
2023/01/12 09:21:06;;;;;;;5.68;4.40;;;22.10;99.90;;;;;;4935985;29;20020;-49
2023/01/12 09:23:32;;;;;;;4.57;3.65;;;22.20;99.90;;;;;;4935875;29;20139;-49
2023/01/12 09:26:02;;;;;;;6.75;4.45;;;22.20;99.90;;;;;;4935989;29;20028;-49
2023/01/12 09:28:28;;;;;;;6.18;4.03;;;22.30;99.90;;;;;;4935949;29;20082;-49
2023/01/12 09:30:54;;;;;;;9.23;4.53;;;22.30;99.90;;;;;;4935803;29;20111;-49
2023/01/12 09:33:20;;;;;;;7.35;4.35;;;22.30;99.90;;;;;;4935845;29;20034;-49
2023/01/12 09:35:46;;;;;;;7.07;4.65;;;22.40;99.90;;;;;;4935763;29;20159;-49
2023/01/12 09:38:12;;;;;;;6.28;4.13;;;22.40;99.90;;;;;;4935887;29;20102;-49
2023/01/12 09:40:42;;;;;;;6.68;4.47;;;22.40;99.90;;;;;;4935507;29;20024;-49
2023/01/12 09:48:41;;;;;;;5.93;3.85;;;22.50;99.90;;;;;;4935756;29;20038;-50
2023/01/12 09:51:15;;;;;;;5.38;3.47;;;22.50;99.90;;;;;;4935802;29;20577;-50
2023/01/12 09:53:41;;;;;;;9.10;3.60;;;22.60;99.90;;;;;;4935420;29;20031;-49
2023/01/12 09:56:07;;;;;;;7.15;4.00;;;22.60;99.90;;;;;;4935612;29;20067;-49
2023/01/12 09:58:45;;;;;;;6.05;3.83;;;22.60;99.90;;;;;;4935739;29;20024;-49
2023/01/12 10:01:15;;;;;;;5.90;3.47;;;22.70;99.90;;;;;;4935256;29;20048;-49
2023/01/12 10:03:42;;;;;;;5.70;4.07;;;22.70;99.90;;;;;;4934691;29;20070;-49
2023/01/12 10:06:15;;;;;;;9.07;4.20;;;22.80;99.90;;;;;;4935560;29;20047;-49
2023/01/12 10:08:51;;;;;;;6.65;3.53;;;22.80;99.90;;;;;;4935333;29;20028;-49
2023/01/12 10:11:23;;;;;;;5.88;3.58;;;22.80;99.90;;;;;;4935281;29;20020;-49
2023/01/12 10:14:13;;;;;;;8.77;3.83;;;22.90;99.90;;;;;;4935055;29;20028;-50
2023/01/12 10:17:00;;;;;;;7.07;3.40;;;22.90;99.90;;;;;;4935205;29;20020;-49
2023/01/12 10:19:50;;;;;;;5.65;3.38;;;23.00;99.90;;;;;;4935131;29;20060;-50
2023/01/12 10:22:36;;;;;;;6.88;3.33;;;23.00;99.90;;;;;;4934875;29;20034;-50
2023/01/12 10:25:33;;;;;;;8.10;4.05;;;23.10;99.90;;;;;;4935086;29;20106;-49
2023/01/12 10:28:28;;;;;;;5.07;3.40;;;23.10;99.90;;;;;;4949667;29;20551;-50
2023/01/12 10:30:55;;;;;;;5.72;3.38;;;23.20;99.90;;;;;;4927703;29;20042;-49
2023/01/12 10:33:24;;;;;;;5.93;3.67;;;23.30;99.90;;;;;;4935140;29;20393;-50
2023/01/12 10:35:50;;;;;;;9.00;3.95;;;23.30;99.90;;;;;;4949667;29;20473;-49
2023/01/12 10:38:27;;;;;;;7.45;3.22;;;23.30;99.90;;;;;;4935142;29;20032;-49
2023/01/12 10:41:12;;;;;;;9.75;3.83;;;23.40;99.90;;;;;;4934901;29;20164;-50
2023/01/12 10:43:42;;;;;;;5.25;3.10;;;23.40;99.90;;;;;;4934943;29;20473;-50
2023/01/12 10:46:12;;;;;;;14.32;3.45;;;23.50;99.90;;;;;;4935028;29;20524;-49
2023/01/12 10:48:42;;;;;;;8.00;3.00;;;23.50;99.90;;;;;;4935055;29;20050;-50
2023/01/12 10:51:18;;;;;;;5.95;3.35;;;23.60;99.90;;;;;;4935007;29;20385;-50
2023/01/12 10:54:16;;;;;;;10.63;3.20;;;23.60;99.90;;;;;;4934787;29;20142;-50
2023/01/12 10:56:52;;;;;;;5.63;3.13;;;23.70;99.90;;;;;;4929864;29;20040;-50
2023/01/12 10:59:20;;;;;;;4.60;2.97;;;23.70;99.90;;;;;;4949489;29;20036;-50
2023/01/12 11:02:07;;;;;;;8.02;3.10;;;23.70;99.90;;;;;;4948970;29;20043;-50
2023/01/12 11:04:42;;;;;;;8.75;3.17;;;23.80;99.90;;;;;;4934849;29;20060;-50
2023/01/12 11:07:15;;;;;;;9.82;3.38;;;23.80;99.90;;;;;;4934573;29;20112;-50
2023/01/12 11:09:42;;;;;;;12.23;3.58;;;23.90;99.90;;;;;;4934858;29;20028;-50
2023/01/12 11:12:28;;;;;;;11.00;3.00;;;23.90;99.90;;;;;;4948707;29;20381;-50
2023/01/12 11:15:19;;;;;;;13.07;3.78;;;23.90;99.90;;;;;;4933157;29;20043;-50
2023/01/12 11:18:00;;;;;;;4.32;2.55;;;23.90;99.90;;;;;;4936994;29;20149;-50
2023/01/12 11:20:58;;;;;;;7.00;3.08;;;24.00;99.90;;;;;;4937202;29;20418;-50
2023/01/12 11:23:24;;;;;;;6.35;3.45;;;24.00;99.90;;;;;;4935632;29;20106;-50
2023/01/12 11:25:52;;;;;;;7.47;3.20;;;24.10;99.90;;;;;;4937770;29;20019;-50
2023/01/12 11:28:22;;;;;;;8.32;3.60;;;24.10;99.90;;;;;;4937229;29;20028;-49
2023/01/12 11:31:04;;;;;;;8.23;3.38;;;24.10;99.90;;;;;;4936338;29;20107;-50
2023/01/12 11:33:43;;;;;;;10.27;3.92;;;24.10;99.90;;;;;;4917866;29;20036;-50
2023/01/12 11:36:14;;;;;;;17.73;5.20;;;24.10;99.90;;;;;;4931877;29;20055;-50
2023/01/12 11:38:50;;;;;;;11.68;4.43;;;24.20;99.90;;;;;;4935242;29;20032;-50
2023/01/12 11:41:24;;;;;;;9.75;4.35;;;24.20;99.90;;;;;;4937083;29;20083;-51
2023/01/12 11:44:25;;;;;;;13.77;4.43;;;24.30;99.90;;;;;;4936727;29;20032;-51
2023/01/12 11:47:12;;;;;;;9.60;3.50;;;24.30;99.90;;;;;;4936963;29;20011;-50
2023/01/12 11:49:52;;;;;;;9.00;3.75;;;24.40;99.90;;;;;;4934585;29;20511;-50
2023/01/12 11:52:18;;;;;;;9.70;4.03;;;24.40;99.90;;;;;;4936859;29;20023;-50
2023/01/12 11:54:44;;;;;;;7.43;4.10;;;24.40;99.90;;;;;;4937742;29;20054;-50
2023/01/12 11:57:31;;;;;;;8.38;3.58;;;24.50;99.90;;;;;;4936635;29;20476;-50
2023/01/12 12:00:25;;;;;;;9.85;4.95;;;24.50;99.90;;;;;;4937146;29;20107;-50
2023/01/12 12:03:06;;;;;;;10.43;4.47;;;24.50;99.90;;;;;;4936903;29;20083;-52
2023/01/12 12:06:11;;;;;;;9.00;4.35;;;24.60;99.90;;;;;;4936883;29;20102;-51
2023/01/12 12:08:55;;;;;;;10.20;5.30;;;24.60;99.90;;;;;;4928347;29;20055;-51
2023/01/12 12:11:54;;;;;;;16.73;4.68;;;24.60;99.90;;;;;;4937035;29;20066;-50
2023/01/12 12:14:47;;;;;;;13.45;5.05;;;24.70;99.90;;;;;;4936567;29;20031;-52
2023/01/12 12:17:24;;;;;;;11.30;5.43;;;24.70;99.90;;;;;;4936648;29;20055;-52
2023/01/12 12:20:05;;;;;;;10.65;4.47;;;24.70;99.90;;;;;;4936987;29;20032;-50
2023/01/12 12:22:49;;;;;;;8.35;4.32;;;24.70;99.90;;;;;;4936971;29;20391;-50
2023/01/12 12:25:21;;;;;;;10.05;5.63;;;24.80;99.90;;;;;;4936907;29;20031;-49
2023/01/12 12:27:49;;;;;;;13.27;5.00;;;24.80;99.90;;;;;;4936178;29;20079;-49
2023/01/12 12:30:45;;;;;;;11.65;5.00;;;24.80;99.90;;;;;;4936291;29;20167;-50
2023/01/12 12:33:32;;;;;;;16.10;5.93;;;24.80;99.90;;;;;;4934950;29;20070;-50
2023/01/12 12:36:23;;;;;;;13.38;5.78;;;24.90;99.90;;;;;;4934136;29;20027;-50
2023/01/12 12:39:19;;;;;;;10.55;5.20;;;24.90;99.90;;;;;;4936226;29;20099;-51
2023/01/12 12:45:15;;;;;;;38.35;9.73;;;25.00;99.90;;;;;;4930303;29;20043;-51
2023/01/12 12:47:58;;;;;;;29.42;7.68;;;25.00;99.90;;;;;;4927758;29;20070;-51
2023/01/12 12:50:43;;;;;;;28.55;8.00;;;25.00;99.90;;;;;;4936133;29;20031;-50
2023/01/12 12:53:26;;;;;;;27.70;8.70;;;25.00;99.90;;;;;;4936290;29;20395;-50
2023/01/12 12:55:55;;;;;;;28.42;8.23;;;25.10;99.90;;;;;;4936385;29;20027;-50
2023/01/12 12:58:21;;;;;;;25.42;8.32;;;25.10;99.90;;;;;;4935999;29;20028;-49
2023/01/12 13:00:51;;;;;;;31.90;9.48;;;25.10;99.90;;;;;;4936330;29;20091;-51
2023/01/12 13:03:38;;;;;;;36.03;9.63;;;25.10;99.90;;;;;;4934773;29;20489;-52
2023/01/12 13:06:29;;;;;;;22.00;5.30;;;25.20;99.90;;;;;;4935875;29;20031;-49
2023/01/12 13:09:04;;;;;;;15.02;4.00;;;25.20;99.90;;;;;;4931777;29;20067;-50
2023/01/12 13:11:52;;;;;;;14.68;4.85;;;25.20;99.90;;;;;;4935883;29;20500;-51
2023/01/12 13:14:39;;;;;;;19.23;5.32;;;25.20;99.90;;;;;;4936205;29;20019;-52
2023/01/12 13:17:17;;;;;;;14.68;4.63;;;25.30;99.90;;;;;;4935923;29;20023;-52
2023/01/12 13:19:50;;;;;;;9.65;3.05;;;25.30;99.90;;;;;;4923210;29;20377;-54
2023/01/12 13:22:26;;;;;;;12.18;3.75;;;25.30;99.90;;;;;;4931619;29;20160;-52
2023/01/12 13:24:52;;;;;;;11.13;2.90;;;25.30;99.90;;;;;;4935825;29;20023;-52
2023/01/12 13:28:01;;;;;;;7.03;2.87;;;25.30;99.90;;;;;;4935657;29;20020;-53
2023/01/12 13:30:27;;;;;;;4.82;2.22;;;25.30;99.90;;;;;;4935545;29;20024;-48
2023/01/12 13:33:10;;;;;;;8.13;3.25;;;25.40;99.90;;;;;;4935759;29;20078;-48
2023/01/12 13:35:37;;;;;;;16.40;3.03;;;25.40;99.90;;;;;;4935664;29;20111;-48
2023/01/12 13:38:43;;;;;;;38.35;7.97;;;25.40;99.90;;;;;;4934639;29;20118;-48
2023/01/12 13:44:23;;;;;;;15.45;4.38;;;25.40;99.90;;;;;;4926143;29;20164;-48
2023/01/12 13:46:52;;;;;;;14.05;3.90;;;25.40;99.90;;;;;;4935082;29;20023;-52